This is the latest recevied weather packets stored in our database for station/object W3SN-13. If no packets are shown the sender has not sent any weather packets the latest 10 day(s).
| Time | Temp. | Humidity | Pressure | Rain* | Wind** | Luminosity | Snow |
|---|---|---|---|---|---|---|---|
| 1788020400 | 30.56° C | 49% | 1014.3 hPa | 0 mm | - | - | - |
| 1788019798 | 30.56° C | 49% | 1014.3 hPa | 0 mm | - | - | - |
| 1788019196 | 31.67° C | 45% | 1014.3 hPa | 0 mm | - | - | - |
| 1788018951 | 31.67° C | 43% | 1014.1 hPa | 0 mm | - | - | - |
| 1788018349 | 30.56° C | 46% | 1014.1 hPa | 0 mm | - | - | - |
| 1788017747 | 28.89° C | 51% | 1014.3 hPa | 0 mm | - | - | - |
| 1788017146 | 28.33° C | 51% | 1014.4 hPa | 0 mm | - | - | - |
| 1788016545 | 27.78° C | 54% | 1014.4 hPa | 0 mm | - | - | - |
| 1788015943 | 27.78° C | 54% | 1014.4 hPa | 0 mm | - | - | - |
| 1788015342 | 27.22° C | 55% | 1014.4 hPa | 0 mm | - | - | - |
| 1788014741 | 28.89° C | 50% | 1014.1 hPa | 0 mm | - | - | - |
| 1788014139 | 27.78° C | 50% | 1014.1 hPa | 0 mm | - | - | - |
| 1788013538 | 26.11° C | 54% | 1014.3 hPa | 0 mm | - | - | - |
| 1788012937 | 25° C | 56% | 1014.4 hPa | 0 mm | - | - | - |
| 1788012335 | 23.89° C | 57% | 1014.3 hPa | 0 mm | - | - | - |
| 1788011734 | 23.33° C | 59% | 1014.1 hPa | 0 mm | - | - | - |
| 1788011132 | 22.78° C | 61% | 1014.1 hPa | 0 mm | - | - | - |
| 1788010531 | 22.78° C | 61% | 1014 hPa | 0 mm | - | - | - |
| 1788009929 | 22.78° C | 61% | 1013.9 hPa | 0 mm | - | - | - |
| 1788009328 | 22.78° C | 61% | 1014 hPa | 0 mm | - | - | - |
| 1788008726 | 23.33° C | 59% | 1013.9 hPa | 0 mm | - | - | - |
| 1788008125 | 23.33° C | 59% | 1013.9 hPa | 0 mm | - | - | - |
| 1788007523 | 23.33° C | 59% | 1013.8 hPa | 0 mm | - | - | - |
| 1788006922 | 23.33° C | 58% | 1013.8 hPa | 0 mm | - | - | - |
| 1788006321 | 23.33° C | 59% | 1013.8 hPa | 0 mm | - | - | - |
* Rain latest hour (hover to see other rain measurements)
** Current wind speed in m/s (hover to see current wind gust speed)